sensor_id;sensor_type;location;lat;lon;timestamp;P1;P2;P0
70915;PMS5003;58557;50.982;-3.222;2022-09-12T00:03:19;14;14;
70915;PMS5003;58557;50.982;-3.222;2022-09-12T00:05:45;14;13;
70915;PMS5003;58557;50.982;-3.222;2022-09-12T00:08:15;12;10;
70915;PMS5003;58557;50.982;-3.222;2022-09-12T00:10:36;14;14;
70915;PMS5003;58557;50.982;-3.222;2022-09-12T00:13:01;13;11;
70915;PMS5003;58557;50.982;-3.222;2022-09-12T00:15:27;18;14;
70915;PMS5003;58557;50.982;-3.222;2022-09-12T00:17:53;12;12;
70915;PMS5003;58557;50.982;-3.222;2022-09-12T00:20:18;14;12;
70915;PMS5003;58557;50.982;-3.222;2022-09-12T00:22:44;15;14;
70915;PMS5003;58557;50.982;-3.222;2022-09-12T00:25:12;18;16;
70915;PMS5003;58557;50.982;-3.222;2022-09-12T00:27:35;16;15;
70915;PMS5003;58557;50.982;-3.222;2022-09-12T00:30:06;15;15;
70915;PMS5003;58557;50.982;-3.222;2022-09-12T00:32:26;15;15;
70915;PMS5003;58557;50.982;-3.222;2022-09-12T00:34:57;14;13;
70915;PMS5003;58557;50.982;-3.222;2022-09-12T00:37:23;11;11;
70915;PMS5003;58557;50.982;-3.222;2022-09-12T00:39:43;19;19;
70915;PMS5003;58557;50.982;-3.222;2022-09-12T00:42:08;16;16;
70915;PMS5003;58557;50.982;-3.222;2022-09-12T00:44:41;22;21;
70915;PMS5003;58557;50.982;-3.222;2022-09-12T00:46:59;18;15;
70915;PMS5003;58557;50.982;-3.222;2022-09-12T00:49:30;16;15;
70915;PMS5003;58557;50.982;-3.222;2022-09-12T00:51:56;18;18;
70915;PMS5003;58557;50.982;-3.222;2022-09-12T00:54:18;17;17;
70915;PMS5003;58557;50.982;-3.222;2022-09-12T00:56:42;17;17;
70915;PMS5003;58557;50.982;-3.222;2022-09-12T00:59:08;21;16;
70915;PMS5003;58557;50.982;-3.222;2022-09-12T01:01:38;17;17;
70915;PMS5003;58557;50.982;-3.222;2022-09-12T01:04:03;16;16;
70915;PMS5003;58557;50.982;-3.222;2022-09-12T01:06:30;17;17;
70915;PMS5003;58557;50.982;-3.222;2022-09-12T01:08:49;17;16;
70915;PMS5003;58557;50.982;-3.222;2022-09-12T01:11:15;16;16;
70915;PMS5003;58557;50.982;-3.222;2022-09-12T01:13:40;15;15;
70915;PMS5003;58557;50.982;-3.222;2022-09-12T01:16:10;19;19;
70915;PMS5003;58557;50.982;-3.222;2022-09-12T01:18:33;17;17;
70915;PMS5003;58557;50.982;-3.222;2022-09-12T01:21:07;14;14;
70915;PMS5003;58557;50.982;-3.222;2022-09-12T01:30:42;23;21;
70915;PMS5003;58557;50.982;-3.222;2022-09-12T01:33:07;19;19;
70915;PMS5003;58557;50.982;-3.222;2022-09-12T01:35:35;20;16;
70915;PMS5003;58557;50.982;-3.222;2022-09-12T01:38:02;21;19;
70915;PMS5003;58557;50.982;-3.222;2022-09-12T01:40:21;23;23;
70915;PMS5003;58557;50.982;-3.222;2022-09-12T01:42:51;18;17;
70915;PMS5003;58557;50.982;-3.222;2022-09-12T01:45:12;14;14;
70915;PMS5003;58557;50.982;-3.222;2022-09-12T01:47:40;23;22;
70915;PMS5003;58557;50.982;-3.222;2022-09-12T01:50:02;20;18;
70915;PMS5003;58557;50.982;-3.222;2022-09-12T01:52:27;17;17;
70915;PMS5003;58557;50.982;-3.222;2022-09-12T01:54:53;22;20;
70915;PMS5003;58557;50.982;-3.222;2022-09-12T01:57:19;22;18;
70915;PMS5003;58557;50.982;-3.222;2022-09-12T01:59:43;17;17;
70915;PMS5003;58557;50.982;-3.222;2022-09-12T02:02:10;20;19;
70915;PMS5003;58557;50.982;-3.222;2022-09-12T02:04:40;18;18;
70915;PMS5003;58557;50.982;-3.222;2022-09-12T02:07:00;18;18;
70915;PMS5003;58557;50.982;-3.222;2022-09-12T02:09:31;12;12;
70915;PMS5003;58557;50.982;-3.222;2022-09-12T02:11:51;15;15;
70915;PMS5003;58557;50.982;-3.222;2022-09-12T02:14:16;25;21;
70915;PMS5003;58557;50.982;-3.222;2022-09-12T02:16:41;20;19;
70915;PMS5003;58557;50.982;-3.222;2022-09-12T02:19:16;17;16;
70915;PMS5003;58557;50.982;-3.222;2022-09-12T02:21:37;16;15;
70915;PMS5003;58557;50.982;-3.222;2022-09-12T02:24:02;18;16;
70915;PMS5003;58557;50.982;-3.222;2022-09-12T02:26:28;19;18;
70915;PMS5003;58557;50.982;-3.222;2022-09-12T02:28:48;16;15;
70915;PMS5003;58557;50.982;-3.222;2022-09-12T02:31:20;20;17;
70915;PMS5003;58557;50.982;-3.222;2022-09-12T02:33:41;14;13;
70915;PMS5003;58557;50.982;-3.222;2022-09-12T02:36:07;19;17;
70915;PMS5003;58557;50.982;-3.222;2022-09-12T02:38:32;17;17;
70915;PMS5003;58557;50.982;-3.222;2022-09-12T02:41:00;18;17;
70915;PMS5003;58557;50.982;-3.222;2022-09-12T02:43:20;21;18;
70915;PMS5003;58557;50.982;-3.222;2022-09-12T02:45:45;13;13;
70915;PMS5003;58557;50.982;-3.222;2022-09-12T02:48:18;21;21;
70915;PMS5003;58557;50.982;-3.222;2022-09-12T02:50:37;15;15;
70915;PMS5003;58557;50.982;-3.222;2022-09-12T02:53:02;19;17;
70915;PMS5003;58557;50.982;-3.222;2022-09-12T02:55:28;24;23;
70915;PMS5003;58557;50.982;-3.222;2022-09-12T02:57:58;19;18;
70915;PMS5003;58557;50.982;-3.222;2022-09-12T03:00:18;21;19;
70915;PMS5003;58557;50.982;-3.222;2022-09-12T03:02:47;20;16;
70915;PMS5003;58557;50.982;-3.222;2022-09-12T03:05:12;14;14;
70915;PMS5003;58557;50.982;-3.222;2022-09-12T03:07:41;16;15;
70915;PMS5003;58557;50.982;-3.222;2022-09-12T03:10:01;18;17;
70915;PMS5003;58557;50.982;-3.222;2022-09-12T03:12:30;18;16;
70915;PMS5003;58557;50.982;-3.222;2022-09-12T03:14:54;16;15;
70915;PMS5003;58557;50.982;-3.222;2022-09-12T03:17:18;17;15;
70915;PMS5003;58557;50.982;-3.222;2022-09-12T03:19:44;15;15;
70915;PMS5003;58557;50.982;-3.222;2022-09-12T03:22:08;14;14;
70915;PMS5003;58557;50.982;-3.222;2022-09-12T03:24:32;20;18;
70915;PMS5003;58557;50.982;-3.222;2022-09-12T03:26:57;15;15;
70915;PMS5003;58557;50.982;-3.222;2022-09-12T03:29:22;17;17;
70915;PMS5003;58557;50.982;-3.222;2022-09-12T03:31:48;15;14;
70915;PMS5003;58557;50.982;-3.222;2022-09-12T03:34:13;20;19;
70915;PMS5003;58557;50.982;-3.222;2022-09-12T03:36:43;16;16;
70915;PMS5003;58557;50.982;-3.222;2022-09-12T03:39:04;19;17;
70915;PMS5003;58557;50.982;-3.222;2022-09-12T03:41:29;17;16;
70915;PMS5003;58557;50.982;-3.222;2022-09-12T03:43:55;19;19;
70915;PMS5003;58557;50.982;-3.222;2022-09-12T03:46:20;15;15;
70915;PMS5003;58557;50.982;-3.222;2022-09-12T03:48:51;17;17;
70915;PMS5003;58557;50.982;-3.222;2022-09-12T03:51:11;19;17;
70915;PMS5003;58557;50.982;-3.222;2022-09-12T03:53:41;18;16;
70915;PMS5003;58557;50.982;-3.222;2022-09-12T03:56:06;16;16;
70915;PMS5003;58557;50.982;-3.222;2022-09-12T03:58:28;17;15;
70915;PMS5003;58557;50.982;-3.222;2022-09-12T04:00:53;18;18;
70915;PMS5003;58557;50.982;-3.222;2022-09-12T04:03:18;19;18;
70915;PMS5003;58557;50.982;-3.222;2022-09-12T04:05:49;19;19;
70915;PMS5003;58557;50.982;-3.222;2022-09-12T04:08:12;17;17;
70915;PMS5003;58557;50.982;-3.222;2022-09-12T04:10:40;25;24;
70915;PMS5003;58557;50.982;-3.222;2022-09-12T04:13:01;21;19;
70915;PMS5003;58557;50.982;-3.222;2022-09-12T04:15:26;19;17;
70915;PMS5003;58557;50.982;-3.222;2022-09-12T04:17:56;23;22;
70915;PMS5003;58557;50.982;-3.222;2022-09-12T04:20:16;20;20;
70915;PMS5003;58557;50.982;-3.222;2022-09-12T04:22:42;23;22;
70915;PMS5003;58557;50.982;-3.222;2022-09-12T04:25:08;19;18;
70915;PMS5003;58557;50.982;-3.222;2022-09-12T04:27:32;18;18;
70915;PMS5003;58557;50.982;-3.222;2022-09-12T04:29:58;21;21;
70915;PMS5003;58557;50.982;-3.222;2022-09-12T04:32:23;18;17;
70915;PMS5003;58557;50.982;-3.222;2022-09-12T04:34:49;25;25;
70915;PMS5003;58557;50.982;-3.222;2022-09-12T04:37:14;20;18;
70915;PMS5003;58557;50.982;-3.222;2022-09-12T04:39:39;20;19;
70915;PMS5003;58557;50.982;-3.222;2022-09-12T04:42:05;25;23;
70915;PMS5003;58557;50.982;-3.222;2022-09-12T04:44:30;24;21;
70915;PMS5003;58557;50.982;-3.222;2022-09-12T04:46:56;23;23;
70915;PMS5003;58557;50.982;-3.222;2022-09-12T04:49:26;23;23;
70915;PMS5003;58557;50.982;-3.222;2022-09-12T04:51:46;21;21;
70915;PMS5003;58557;50.982;-3.222;2022-09-12T04:54:12;29;29;
70915;PMS5003;58557;50.982;-3.222;2022-09-12T04:56:37;18;18;
70915;PMS5003;58557;50.982;-3.222;2022-09-12T04:59:07;33;30;
70915;PMS5003;58557;50.982;-3.222;2022-09-12T05:01:33;29;26;
70915;PMS5003;58557;50.982;-3.222;2022-09-12T05:03:53;27;23;
70915;PMS5003;58557;50.982;-3.222;2022-09-12T05:06:23;26;26;
70915;PMS5003;58557;50.982;-3.222;2022-09-12T05:08:43;25;22;
70915;PMS5003;58557;50.982;-3.222;2022-09-12T05:11:11;23;23;
70915;PMS5003;58557;50.982;-3.222;2022-09-12T05:13:39;28;27;
70915;PMS5003;58557;50.982;-3.222;2022-09-12T05:16:01;27;27;
70915;PMS5003;58557;50.982;-3.222;2022-09-12T05:18:25;30;28;
70915;PMS5003;58557;50.982;-3.222;2022-09-12T05:20:50;28;28;
70915;PMS5003;58557;50.982;-3.222;2022-09-12T05:23:15;29;26;
70915;PMS5003;58557;50.982;-3.222;2022-09-12T05:28:09;23;21;
70915;PMS5003;58557;50.982;-3.222;2022-09-12T05:30:37;25;23;
70915;PMS5003;58557;50.982;-3.222;2022-09-12T05:33:02;28;27;
70915;PMS5003;58557;50.982;-3.222;2022-09-12T05:35:28;27;25;
70915;PMS5003;58557;50.982;-3.222;2022-09-12T05:37:54;27;25;
70915;PMS5003;58557;50.982;-3.222;2022-09-12T05:40:14;25;22;
70915;PMS5003;58557;50.982;-3.222;2022-09-12T05:42:40;29;27;
70915;PMS5003;58557;50.982;-3.222;2022-09-12T05:45:10;24;22;
70915;PMS5003;58557;50.982;-3.222;2022-09-12T05:47:30;24;23;
70915;PMS5003;58557;50.982;-3.222;2022-09-12T05:50:00;30;30;
70915;PMS5003;58557;50.982;-3.222;2022-09-12T05:52:21;24;22;
70915;PMS5003;58557;50.982;-3.222;2022-09-12T05:54:47;23;22;
70915;PMS5003;58557;50.982;-3.222;2022-09-12T05:57:12;32;28;
70915;PMS5003;58557;50.982;-3.222;2022-09-12T05:59:42;26;24;
70915;PMS5003;58557;50.982;-3.222;2022-09-12T06:02:07;31;27;
70915;PMS5003;58557;50.982;-3.222;2022-09-12T06:04:27;30;26;
70915;PMS5003;58557;50.982;-3.222;2022-09-12T06:06:58;27;27;
70915;PMS5003;58557;50.982;-3.222;2022-09-12T06:09:23;26;24;
70915;PMS5003;58557;50.982;-3.222;2022-09-12T06:11:44;24;24;
70915;PMS5003;58557;50.982;-3.222;2022-09-12T06:14:09;30;27;
70915;PMS5003;58557;50.982;-3.222;2022-09-12T06:16:34;26;22;
70915;PMS5003;58557;50.982;-3.222;2022-09-12T06:19:01;30;28;
70915;PMS5003;58557;50.982;-3.222;2022-09-12T06:21:30;27;25;
70915;PMS5003;58557;50.982;-3.222;2022-09-12T06:23:51;23;23;
70915;PMS5003;58557;50.982;-3.222;2022-09-12T06:26:21;32;29;
70915;PMS5003;58557;50.982;-3.222;2022-09-12T06:28:42;29;28;
70915;PMS5003;58557;50.982;-3.222;2022-09-12T06:31:08;36;31;
70915;PMS5003;58557;50.982;-3.222;2022-09-12T06:33:38;28;27;
70915;PMS5003;58557;50.982;-3.222;2022-09-12T06:38:23;28;26;
70915;PMS5003;58557;50.982;-3.222;2022-09-12T06:40:49;32;30;
70915;PMS5003;58557;50.982;-3.222;2022-09-12T06:43:14;32;28;
70915;PMS5003;58557;50.982;-3.222;2022-09-12T06:48:10;28;28;
70915;PMS5003;58557;50.982;-3.222;2022-09-12T06:50:36;24;23;
70915;PMS5003;58557;50.982;-3.222;2022-09-12T06:53:01;28;27;
70915;PMS5003;58557;50.982;-3.222;2022-09-12T06:55:22;26;24;
70915;PMS5003;58557;50.982;-3.222;2022-09-12T06:57:49;22;22;
70915;PMS5003;58557;50.982;-3.222;2022-09-12T07:00:18;27;26;
70915;PMS5003;58557;50.982;-3.222;2022-09-12T07:02:38;27;26;
70915;PMS5003;58557;50.982;-3.222;2022-09-12T07:05:09;26;22;
70915;PMS5003;58557;50.982;-3.222;2022-09-12T07:07:34;28;27;
70915;PMS5003;58557;50.982;-3.222;2022-09-12T07:09:55;25;24;
70915;PMS5003;58557;50.982;-3.222;2022-09-12T07:12:20;28;26;
70915;PMS5003;58557;50.982;-3.222;2022-09-12T07:14:46;29;27;
70915;PMS5003;58557;50.982;-3.222;2022-09-12T07:17:16;28;28;
70915;PMS5003;58557;50.982;-3.222;2022-09-12T07:19:36;27;27;
70915;PMS5003;58557;50.982;-3.222;2022-09-12T07:22:01;27;25;
70915;PMS5003;58557;50.982;-3.222;2022-09-12T07:24:26;22;22;
70915;PMS5003;58557;50.982;-3.222;2022-09-12T07:26:52;28;25;
70915;PMS5003;58557;50.982;-3.222;2022-09-12T07:29:17;26;23;
70915;PMS5003;58557;50.982;-3.222;2022-09-12T07:31:42;29;26;
70915;PMS5003;58557;50.982;-3.222;2022-09-12T07:34:08;30;26;
70915;PMS5003;58557;50.982;-3.222;2022-09-12T07:36:38;26;25;
70915;PMS5003;58557;50.982;-3.222;2022-09-12T07:38:59;29;29;
70915;PMS5003;58557;50.982;-3.222;2022-09-12T07:41:25;23;22;
70915;PMS5003;58557;50.982;-3.222;2022-09-12T07:43:55;27;26;
70915;PMS5003;58557;50.982;-3.222;2022-09-12T07:46:15;25;21;
70915;PMS5003;58557;50.982;-3.222;2022-09-12T07:48:48;23;21;
70915;PMS5003;58557;50.982;-3.222;2022-09-12T07:51:07;27;24;
70915;PMS5003;58557;50.982;-3.222;2022-09-12T07:53:37;29;28;
70915;PMS5003;58557;50.982;-3.222;2022-09-12T07:55:57;25;23;
70915;PMS5003;58557;50.982;-3.222;2022-09-12T07:58:27;29;27;
70915;PMS5003;58557;50.982;-3.222;2022-09-12T08:00:47;29;27;
70915;PMS5003;58557;50.982;-3.222;2022-09-12T08:03:17;22;22;
70915;PMS5003;58557;50.982;-3.222;2022-09-12T08:05:37;27;27;
70915;PMS5003;58557;50.982;-3.222;2022-09-12T08:08:03;28;24;
70915;PMS5003;58557;50.982;-3.222;2022-09-12T08:10:33;21;18;
70915;PMS5003;58557;50.982;-3.222;2022-09-12T08:12:56;20;18;
70915;PMS5003;58557;50.982;-3.222;2022-09-12T08:15:24;21;18;
70915;PMS5003;58557;50.982;-3.222;2022-09-12T08:17:49;22;22;
70915;PMS5003;58557;50.982;-3.222;2022-09-12T08:20:09;20;17;
70915;PMS5003;58557;50.982;-3.222;2022-09-12T08:22:40;16;16;
70915;PMS5003;58557;50.982;-3.222;2022-09-12T08:25:01;19;19;
70915;PMS5003;58557;50.982;-3.222;2022-09-12T08:27:26;20;20;
70915;PMS5003;58557;50.982;-3.222;2022-09-12T08:29:51;26;22;
70915;PMS5003;58557;50.982;-3.222;2022-09-12T08:32:17;16;16;
70915;PMS5003;58557;50.982;-3.222;2022-09-12T08:34:42;25;24;
70915;PMS5003;58557;50.982;-3.222;2022-09-12T08:37:08;17;16;
70915;PMS5003;58557;50.982;-3.222;2022-09-12T08:39:34;21;21;
70915;PMS5003;58557;50.982;-3.222;2022-09-12T08:42:00;18;18;
70915;PMS5003;58557;50.982;-3.222;2022-09-12T08:44:30;25;23;
70915;PMS5003;58557;50.982;-3.222;2022-09-12T08:46:55;22;20;
70915;PMS5003;58557;50.982;-3.222;2022-09-12T08:49:19;17;17;
70915;PMS5003;58557;50.982;-3.222;2022-09-12T08:51:42;19;19;
70915;PMS5003;58557;50.982;-3.222;2022-09-12T08:54:11;24;24;
70915;PMS5003;58557;50.982;-3.222;2022-09-12T08:56:35;22;21;
70915;PMS5003;58557;50.982;-3.222;2022-09-12T08:58:59;16;15;
70915;PMS5003;58557;50.982;-3.222;2022-09-12T09:01:26;20;20;
70915;PMS5003;58557;50.982;-3.222;2022-09-12T09:06:20;21;21;
70915;PMS5003;58557;50.982;-3.222;2022-09-12T09:08:44;18;18;
70915;PMS5003;58557;50.982;-3.222;2022-09-12T09:11:11;19;18;
70915;PMS5003;58557;50.982;-3.222;2022-09-12T09:13:37;19;16;
70915;PMS5003;58557;50.982;-3.222;2022-09-12T09:15:58;19;19;
70915;PMS5003;58557;50.982;-3.222;2022-09-12T09:18:23;20;17;
70915;PMS5003;58557;50.982;-3.222;2022-09-12T09:20:48;18;16;
70915;PMS5003;58557;50.982;-3.222;2022-09-12T09:23:20;21;18;
70915;PMS5003;58557;50.982;-3.222;2022-09-12T09:25:41;21;21;
70915;PMS5003;58557;50.982;-3.222;2022-09-12T09:28:05;15;15;
70915;PMS5003;58557;50.982;-3.222;2022-09-12T09:30:29;16;16;
70915;PMS5003;58557;50.982;-3.222;2022-09-12T09:32:56;20;19;
70915;PMS5003;58557;50.982;-3.222;2022-09-12T09:35:28;15;14;
70915;PMS5003;58557;50.982;-3.222;2022-09-12T09:37:56;14;14;
70915;PMS5003;58557;50.982;-3.222;2022-09-12T09:40:16;12;10;
70915;PMS5003;58557;50.982;-3.222;2022-09-12T09:42:39;14;13;
70915;PMS5003;58557;50.982;-3.222;2022-09-12T09:45:09;16;15;
70915;PMS5003;58557;50.982;-3.222;2022-09-12T09:47:28;16;15;
70915;PMS5003;58557;50.982;-3.222;2022-09-12T09:49:58;15;12;
70915;PMS5003;58557;50.982;-3.222;2022-09-12T09:52:19;16;15;
70915;PMS5003;58557;50.982;-3.222;2022-09-12T09:54:45;15;14;
70915;PMS5003;58557;50.982;-3.222;2022-09-12T09:59:35;13;13;
70915;PMS5003;58557;50.982;-3.222;2022-09-12T10:02:02;12;11;
70915;PMS5003;58557;50.982;-3.222;2022-09-12T10:04:26;9;7;
70915;PMS5003;58557;50.982;-3.222;2022-09-12T10:06:52;8;7;
70915;PMS5003;58557;50.982;-3.222;2022-09-12T10:09:18;5;5;
70915;PMS5003;58557;50.982;-3.222;2022-09-12T10:11:47;4;4;
70915;PMS5003;58557;50.982;-3.222;2022-09-12T10:14:17;4;4;
70915;PMS5003;58557;50.982;-3.222;2022-09-12T10:16:33;6;6;
70915;PMS5003;58557;50.982;-3.222;2022-09-12T10:18:59;5;5;
70915;PMS5003;58557;50.982;-3.222;2022-09-12T10:21:27;9;5;
70915;PMS5003;58557;50.982;-3.222;2022-09-12T10:23:50;4;4;
70915;PMS5003;58557;50.982;-3.222;2022-09-12T10:26:19;4;4;
70915;PMS5003;58557;50.982;-3.222;2022-09-12T10:28:46;6;5;
70915;PMS5003;58557;50.982;-3.222;2022-09-12T10:31:12;4;4;
70915;PMS5003;58557;50.982;-3.222;2022-09-12T10:33:31;7;6;
70915;PMS5003;58557;50.982;-3.222;2022-09-12T10:35:56;8;6;
70915;PMS5003;58557;50.982;-3.222;2022-09-12T10:38:22;6;6;
70915;PMS5003;58557;50.982;-3.222;2022-09-12T10:40:53;5;4;
70915;PMS5003;58557;50.982;-3.222;2022-09-12T10:43:15;5;5;
70915;PMS5003;58557;50.982;-3.222;2022-09-12T10:45:38;4;4;
70915;PMS5003;58557;50.982;-3.222;2022-09-12T10:50:29;5;5;
70915;PMS5003;58557;50.982;-3.222;2022-09-12T10:55:22;4;4;
70915;PMS5003;58557;50.982;-3.222;2022-09-12T10:57:54;7;7;
70915;PMS5003;58557;50.982;-3.222;2022-09-12T11:00:11;6;4;
70915;PMS5003;58557;50.982;-3.222;2022-09-12T11:02:39;3;3;
70915;PMS5003;58557;50.982;-3.222;2022-09-12T11:05:03;4;4;
70915;PMS5003;58557;50.982;-3.222;2022-09-12T11:07:33;4;4;
70915;PMS5003;58557;50.982;-3.222;2022-09-12T11:09:54;4;4;
70915;PMS5003;58557;50.982;-3.222;2022-09-12T11:12:19;5;5;
70915;PMS5003;58557;50.982;-3.222;2022-09-12T11:14:49;6;4;
70915;PMS5003;58557;50.982;-3.222;2022-09-12T11:17:13;5;5;
70915;PMS5003;58557;50.982;-3.222;2022-09-12T11:19:44;4;4;
70915;PMS5003;58557;50.982;-3.222;2022-09-12T11:22:05;10;7;
70915;PMS5003;58557;50.982;-3.222;2022-09-12T11:24:30;4;4;
70915;PMS5003;58557;50.982;-3.222;2022-09-12T11:26:57;4;4;
70915;PMS5003;58557;50.982;-3.222;2022-09-12T11:29:19;5;5;
70915;PMS5003;58557;50.982;-3.222;2022-09-12T11:31:52;4;4;
70915;PMS5003;58557;50.982;-3.222;2022-09-12T11:34:08;4;4;
70915;PMS5003;58557;50.982;-3.222;2022-09-12T11:36:34;5;5;
70915;PMS5003;58557;50.982;-3.222;2022-09-12T11:39:00;5;5;
70915;PMS5003;58557;50.982;-3.222;2022-09-12T11:41:24;5;4;
70915;PMS5003;58557;50.982;-3.222;2022-09-12T11:43:49;5;5;
70915;PMS5003;58557;50.982;-3.222;2022-09-12T11:46:16;5;4;
70915;PMS5003;58557;50.982;-3.222;2022-09-12T11:48:47;7;5;
70915;PMS5003;58557;50.982;-3.222;2022-09-12T11:51:06;6;4;
70915;PMS5003;58557;50.982;-3.222;2022-09-12T11:53:32;5;5;
70915;PMS5003;58557;50.982;-3.222;2022-09-12T11:55:57;7;4;
70915;PMS5003;58557;50.982;-3.222;2022-09-12T11:58:22;5;5;
70915;PMS5003;58557;50.982;-3.222;2022-09-12T12:00:52;4;4;
70915;PMS5003;58557;50.982;-3.222;2022-09-12T12:03:13;6;4;
70915;PMS5003;58557;50.982;-3.222;2022-09-12T12:05:39;5;5;
70915;PMS5003;58557;50.982;-3.222;2022-09-12T12:08:03;8;8;
70915;PMS5003;58557;50.982;-3.222;2022-09-12T12:10:30;3;3;
70915;PMS5003;58557;50.982;-3.222;2022-09-12T12:12:53;3;3;
70915;PMS5003;58557;50.982;-3.222;2022-09-12T12:15:20;4;4;
70915;PMS5003;58557;50.982;-3.222;2022-09-12T12:17:44;4;4;
70915;PMS5003;58557;50.982;-3.222;2022-09-12T12:20:14;3;3;
70915;PMS5003;58557;50.982;-3.222;2022-09-12T12:22:35;3;3;
70915;PMS5003;58557;50.982;-3.222;2022-09-12T12:25:04;4;3;
70915;PMS5003;58557;50.982;-3.222;2022-09-12T12:29:52;3;3;
70915;PMS5003;58557;50.982;-3.222;2022-09-12T12:32:19;2;2;
70915;PMS5003;58557;50.982;-3.222;2022-09-12T12:34:43;3;3;
70915;PMS5003;58557;50.982;-3.222;2022-09-12T12:41:59;5;4;
70915;PMS5003;58557;50.982;-3.222;2022-09-12T12:49:17;5;3;
70915;PMS5003;58557;50.982;-3.222;2022-09-12T12:56:33;4;3;
70915;PMS5003;58557;50.982;-3.222;2022-09-12T12:59:02;4;3;
70915;PMS5003;58557;50.982;-3.222;2022-09-12T13:01:23;3;3;
70915;PMS5003;58557;50.982;-3.222;2022-09-12T13:03:51;1;1;
70915;PMS5003;58557;50.982;-3.222;2022-09-12T13:08:39;4;4;
70915;PMS5003;58557;50.982;-3.222;2022-09-12T13:11:06;2;2;
70915;PMS5003;58557;50.982;-3.222;2022-09-12T13:13:30;4;4;
70915;PMS5003;58557;50.982;-3.222;2022-09-12T13:15:55;4;3;
70915;PMS5003;58557;50.982;-3.222;2022-09-12T13:18:26;4;4;
70915;PMS5003;58557;50.982;-3.222;2022-09-12T13:20:47;3;3;
70915;PMS5003;58557;50.982;-3.222;2022-09-12T13:25:36;3;2;
70915;PMS5003;58557;50.982;-3.222;2022-09-12T13:28:03;5;4;
70915;PMS5003;58557;50.982;-3.222;2022-09-12T13:30:33;2;2;
70915;PMS5003;58557;50.982;-3.222;2022-09-12T13:32:53;2;2;
70915;PMS5003;58557;50.982;-3.222;2022-09-12T13:35:20;2;2;
70915;PMS5003;58557;50.982;-3.222;2022-09-12T13:37:44;2;2;
70915;PMS5003;58557;50.982;-3.222;2022-09-12T13:40:15;5;3;
70915;PMS5003;58557;50.982;-3.222;2022-09-12T13:42:38;4;4;
70915;PMS5003;58557;50.982;-3.222;2022-09-12T13:45:01;2;2;
70915;PMS5003;58557;50.982;-3.222;2022-09-12T13:47:26;2;2;
70915;PMS5003;58557;50.982;-3.222;2022-09-12T13:49:51;4;4;
70915;PMS5003;58557;50.982;-3.222;2022-09-12T13:52:18;2;2;
70915;PMS5003;58557;50.982;-3.222;2022-09-12T13:54:42;2;2;
70915;PMS5003;58557;50.982;-3.222;2022-09-12T13:57:16;3;3;
70915;PMS5003;58557;50.982;-3.222;2022-09-12T13:59:38;2;2;
70915;PMS5003;58557;50.982;-3.222;2022-09-12T14:04:24;3;3;
70915;PMS5003;58557;50.982;-3.222;2022-09-12T14:06:54;2;1;
70915;PMS5003;58557;50.982;-3.222;2022-09-12T14:09:16;3;3;
70915;PMS5003;58557;50.982;-3.222;2022-09-12T14:11:40;2;2;
70915;PMS5003;58557;50.982;-3.222;2022-09-12T14:14:16;2;2;
70915;PMS5003;58557;50.982;-3.222;2022-09-12T14:16:31;2;2;
70915;PMS5003;58557;50.982;-3.222;2022-09-12T14:18:57;2;2;
70915;PMS5003;58557;50.982;-3.222;2022-09-12T14:21:31;3;2;
70915;PMS5003;58557;50.982;-3.222;2022-09-12T14:23:47;0;0;
70915;PMS5003;58557;50.982;-3.222;2022-09-12T14:26:13;2;1;
70915;PMS5003;58557;50.982;-3.222;2022-09-12T14:28:39;2;2;
70915;PMS5003;58557;50.982;-3.222;2022-09-12T14:31:05;2;2;
70915;PMS5003;58557;50.982;-3.222;2022-09-12T14:33:31;2;2;
70915;PMS5003;58557;50.982;-3.222;2022-09-12T14:38:21;2;2;
70915;PMS5003;58557;50.982;-3.222;2022-09-12T14:40:46;2;1;
70915;PMS5003;58557;50.982;-3.222;2022-09-12T14:43:16;2;2;
70915;PMS5003;58557;50.982;-3.222;2022-09-12T14:45:36;3;3;
70915;PMS5003;58557;50.982;-3.222;2022-09-12T14:48:02;2;2;
70915;PMS5003;58557;50.982;-3.222;2022-09-12T14:50:28;3;3;
70915;PMS5003;58557;50.982;-3.222;2022-09-12T14:53:02;2;2;
70915;PMS5003;58557;50.982;-3.222;2022-09-12T14:55:19;1;1;
70915;PMS5003;58557;50.982;-3.222;2022-09-12T15:00:16;2;2;
70915;PMS5003;58557;50.982;-3.222;2022-09-12T15:02:40;1;1;
70915;PMS5003;58557;50.982;-3.222;2022-09-12T15:05:15;2;2;
70915;PMS5003;58557;50.982;-3.222;2022-09-12T15:07:30;2;2;
70915;PMS5003;58557;50.982;-3.222;2022-09-12T15:09:56;2;2;
70915;PMS5003;58557;50.982;-3.222;2022-09-12T15:12:21;2;2;
70915;PMS5003;58557;50.982;-3.222;2022-09-12T15:14:42;2;2;
70915;PMS5003;58557;50.982;-3.222;2022-09-12T15:17:07;1;1;
70915;PMS5003;58557;50.982;-3.222;2022-09-12T15:19:38;3;3;
70915;PMS5003;58557;50.982;-3.222;2022-09-12T15:21:58;2;2;
70915;PMS5003;58557;50.982;-3.222;2022-09-12T15:24:24;5;3;
70915;PMS5003;58557;50.982;-3.222;2022-09-12T15:26:54;2;2;
70915;PMS5003;58557;50.982;-3.222;2022-09-12T15:29:20;2;2;
70915;PMS5003;58557;50.982;-3.222;2022-09-12T15:31:44;4;2;
70915;PMS5003;58557;50.982;-3.222;2022-09-12T15:34:07;2;2;
70915;PMS5003;58557;50.982;-3.222;2022-09-12T15:36:31;2;2;
70915;PMS5003;58557;50.982;-3.222;2022-09-12T15:38:57;2;2;
70915;PMS5003;58557;50.982;-3.222;2022-09-12T15:41:24;3;3;
70915;PMS5003;58557;50.982;-3.222;2022-09-12T15:43:48;3;3;
70915;PMS5003;58557;50.982;-3.222;2022-09-12T15:46:14;6;5;
70915;PMS5003;58557;50.982;-3.222;2022-09-12T15:48:39;6;4;
70915;PMS5003;58557;50.982;-3.222;2022-09-12T15:51:04;6;6;
70915;PMS5003;58557;50.982;-3.222;2022-09-12T15:53:30;7;7;
70915;PMS5003;58557;50.982;-3.222;2022-09-12T15:55:55;7;7;
70915;PMS5003;58557;50.982;-3.222;2022-09-12T15:58:26;8;8;
70915;PMS5003;58557;50.982;-3.222;2022-09-12T16:00:48;9;8;
70915;PMS5003;58557;50.982;-3.222;2022-09-12T16:03:16;8;8;
70915;PMS5003;58557;50.982;-3.222;2022-09-12T16:05:37;13;13;
70915;PMS5003;58557;50.982;-3.222;2022-09-12T16:08:07;12;10;
70915;PMS5003;58557;50.982;-3.222;2022-09-12T16:10:28;11;10;
70915;PMS5003;58557;50.982;-3.222;2022-09-12T16:12:58;8;8;
70915;PMS5003;58557;50.982;-3.222;2022-09-12T16:15:19;11;10;
70915;PMS5003;58557;50.982;-3.222;2022-09-12T16:17:44;11;10;
70915;PMS5003;58557;50.982;-3.222;2022-09-12T16:20:10;7;7;
70915;PMS5003;58557;50.982;-3.222;2022-09-12T16:22:40;8;6;
70915;PMS5003;58557;50.982;-3.222;2022-09-12T16:25:01;6;6;
70915;PMS5003;58557;50.982;-3.222;2022-09-12T16:27:26;8;7;
70915;PMS5003;58557;50.982;-3.222;2022-09-12T16:29:57;8;8;
70915;PMS5003;58557;50.982;-3.222;2022-09-12T16:32:17;5;5;
70915;PMS5003;58557;50.982;-3.222;2022-09-12T16:34:48;4;4;
70915;PMS5003;58557;50.982;-3.222;2022-09-12T16:37:09;6;6;
70915;PMS5003;58557;50.982;-3.222;2022-09-12T16:39:34;5;5;
70915;PMS5003;58557;50.982;-3.222;2022-09-12T16:41:59;6;6;
70915;PMS5003;58557;50.982;-3.222;2022-09-12T16:44:25;8;7;
70915;PMS5003;58557;50.982;-3.222;2022-09-12T16:46:50;8;7;
70915;PMS5003;58557;50.982;-3.222;2022-09-12T16:49:16;5;5;
70915;PMS5003;58557;50.982;-3.222;2022-09-12T16:51:41;6;5;
70915;PMS5003;58557;50.982;-3.222;2022-09-12T16:54:07;5;5;
70915;PMS5003;58557;50.982;-3.222;2022-09-12T16:56:32;7;7;